Дата Пункты Температура Давл., мм. Влажн., % Ветер Погодные явления
Воздуха Воды Направл. Скорость
17.10.17 06:00 Одесса 12.0 15.0 764 84 З 2 06 часов
17.10.17 03:00 Одесса 12.0 15.0 764 79 З 2 03 часа
16.10.17 09:00 Одесса 13.0 15.0 765 73 З 2 21 час
16.10.17 06:00 Одесса 16.0 15.0 766 55 З 1 18 часов
16.10.17 03:00 Одесса 19.0 15.0 766 49 С-З 1 15 часов
16.10.17 12:00 Одесса 16.0 15.0 766 60 С-З 2 12 часов
16.10.17 09:00 Одесса 12.0 15.0 766 80 С-З 2 09 часов
16.10.17 06:00 Одесса 12.0 15.0 764 81 С-З 2 06 часов
16.10.17 03:00 Одесса 14.0 15.0 763 76 С-З 3 03 часа
15.10.17 09:00 Одесса 17.0 15.0 761 75 С-З 3 21 час
15.10.17 06:00 Одесса 18.0 15.0 761 76 С-З 1 18 часов
15.10.17 03:00 Одесса 18.0 15.0 761 75 З 2 15 часов
15.10.17 12:00 Одесса 16.0 15.0 762 79 З 2 12 часов
15.10.17 09:00 Одесса 13.0 15.0 762 92 З 3 09 часов
15.10.17 06:00 Одесса 10.0 15.0 762 93 З 3 06 часов
15.10.17 03:00 Одесса 10.0 15.0 763 79 З 2 03 часа
14.10.17 09:00 Одесса 12.0 15.0 763 65 С-З 1 21 час
14.10.17 06:00 Одесса 13.0 15.0 762 61 С-З 4 18 часов
14.10.17 03:00 Одесса 14.0 15.0 761 66 С-З 3 15 часов
14.10.17 12:00 Одесса 14.0 15.0 761 63 С-З 3 12 часов
Количество строк
1 2 3 4 5 6 7 8 9 10
Page 2 of 284